<?xml version="1.0" encoding="UTF-8" standalone="no" ?>
<gpx xmlns="http://www.topografix.com/GPX/1/1" xmlns:xsi="http://www.w3.org/2001/XMLSchema-instance" xsi:schemaLocation="http://www.topografix.com/GPX/1/1 http://www.topografix.com/GPX/1/1/gpx.xsd" version="1.1" creator="VisuGPX - https://www.visugpx.com">
  <metadata>
    <name>St Sé - Circuit 12 Km avec dénivelé : 2012-01-15</name>
    <desc><![CDATA[Première boucle de référence avec Aziz]]></desc>
  </metadata>
  <trk>
    <name><![CDATA[ACTIVE LOG: 15 JAN 2012 08:56]]></name>
    <trkseg>
      <trkpt lat="49.00244" lon="1.08944">
        <ele>117.9</ele>
        <time>2012-01-15T08:04:42Z</time>
      </trkpt>
      <trkpt lat="49.00215" lon="1.08954">
        <ele>117.9</ele>
        <time>2012-01-15T08:04:54Z</time>
      </trkpt>
      <trkpt lat="49.00207" lon="1.08964">
        <ele>117.9</ele>
        <time>2012-01-15T08:04:58Z</time>
      </trkpt>
      <trkpt lat="49.00217" lon="1.09018">
        <ele>117.42</ele>
        <time>2012-01-15T08:05:11Z</time>
      </trkpt>
      <trkpt lat="49.00239" lon="1.09063">
        <ele>116.94</ele>
        <time>2012-01-15T08:05:24Z</time>
      </trkpt>
      <trkpt lat="49.0025" lon="1.09088">
        <ele>117.42</ele>
        <time>2012-01-15T08:05:31Z</time>
      </trkpt>
      <trkpt lat="49.00231" lon="1.09131">
        <ele>116.94</ele>
        <time>2012-01-15T08:05:44Z</time>
      </trkpt>
      <trkpt lat="49.00192" lon="1.09146">
        <ele>117.42</ele>
        <time>2012-01-15T08:05:58Z</time>
      </trkpt>
      <trkpt lat="49.00158" lon="1.09172">
        <ele>118.86</ele>
        <time>2012-01-15T08:06:11Z</time>
      </trkpt>
      <trkpt lat="49.00136" lon="1.09215">
        <ele>118.86</ele>
        <time>2012-01-15T08:06:25Z</time>
      </trkpt>
      <trkpt lat="49.00134" lon="1.09235">
        <ele>118.38</ele>
        <time>2012-01-15T08:06:30Z</time>
      </trkpt>
      <trkpt lat="49.00147" lon="1.09285">
        <ele>117.9</ele>
        <time>2012-01-15T08:06:43Z</time>
      </trkpt>
      <trkpt lat="49.00159" lon="1.09333">
        <ele>118.38</ele>
        <time>2012-01-15T08:06:56Z</time>
      </trkpt>
      <trkpt lat="49.0016" lon="1.09362">
        <ele>115.5</ele>
        <time>2012-01-15T08:07:05Z</time>
      </trkpt>
      <trkpt lat="49.0016" lon="1.09368">
        <ele>114.53</ele>
        <time>2012-01-15T08:07:07Z</time>
      </trkpt>
      <trkpt lat="49.0016" lon="1.0938">
        <ele>113.09</ele>
        <time>2012-01-15T08:07:10Z</time>
      </trkpt>
      <trkpt lat="49.00163" lon="1.09404">
        <ele>109.73</ele>
        <time>2012-01-15T08:07:16Z</time>
      </trkpt>
      <trkpt lat="49.00165" lon="1.09422">
        <ele>107.81</ele>
        <time>2012-01-15T08:07:21Z</time>
      </trkpt>
      <trkpt lat="49.00166" lon="1.09439">
        <ele>105.4</ele>
        <time>2012-01-15T08:07:25Z</time>
      </trkpt>
      <trkpt lat="49.00166" lon="1.09463">
        <ele>102.04</ele>
        <time>2012-01-15T08:07:31Z</time>
      </trkpt>
      <trkpt lat="49.00166" lon="1.09467">
        <ele>102.04</ele>
        <time>2012-01-15T08:07:32Z</time>
      </trkpt>
      <trkpt lat="49.00167" lon="1.09482">
        <ele>99.63</ele>
        <time>2012-01-15T08:07:36Z</time>
      </trkpt>
      <trkpt lat="49.00169" lon="1.09495">
        <ele>97.71</ele>
        <time>2012-01-15T08:07:39Z</time>
      </trkpt>
      <trkpt lat="49.00169" lon="1.09513">
        <ele>95.79</ele>
        <time>2012-01-15T08:07:43Z</time>
      </trkpt>
      <trkpt lat="49.00169" lon="1.0953">
        <ele>93.87</ele>
        <time>2012-01-15T08:07:47Z</time>
      </trkpt>
      <trkpt lat="49.00169" lon="1.09555">
        <ele>90.5</ele>
        <time>2012-01-15T08:07:53Z</time>
      </trkpt>
      <trkpt lat="49.00169" lon="1.0956">
        <ele>90.5</ele>
        <time>2012-01-15T08:07:54Z</time>
      </trkpt>
      <trkpt lat="49.00169" lon="1.09573">
        <ele>89.06</ele>
        <time>2012-01-15T08:07:57Z</time>
      </trkpt>
      <trkpt lat="49.0017" lon="1.0959">
        <ele>86.66</ele>
        <time>2012-01-15T08:08:01Z</time>
      </trkpt>
      <trkpt lat="49.00171" lon="1.09607">
        <ele>84.25</ele>
        <time>2012-01-15T08:08:05Z</time>
      </trkpt>
      <trkpt lat="49.00171" lon="1.09617">
        <ele>82.33</ele>
        <time>2012-01-15T08:08:08Z</time>
      </trkpt>
      <trkpt lat="49.0017" lon="1.09631">
        <ele>79.93</ele>
        <time>2012-01-15T08:08:12Z</time>
      </trkpt>
      <trkpt lat="49.0017" lon="1.09641">
        <ele>78.48</ele>
        <time>2012-01-15T08:08:15Z</time>
      </trkpt>
      <trkpt lat="49.0017" lon="1.09654">
        <ele>76.08</ele>
        <time>2012-01-15T08:08:19Z</time>
      </trkpt>
      <trkpt lat="49.00171" lon="1.09669">
        <ele>73.68</ele>
        <time>2012-01-15T08:08:23Z</time>
      </trkpt>
      <trkpt lat="49.00172" lon="1.09681">
        <ele>71.76</ele>
        <time>2012-01-15T08:08:26Z</time>
      </trkpt>
      <trkpt lat="49.00175" lon="1.09701">
        <ele>69.35</ele>
        <time>2012-01-15T08:08:30Z</time>
      </trkpt>
      <trkpt lat="49.00192" lon="1.09751">
        <ele>66.95</ele>
        <time>2012-01-15T08:08:41Z</time>
      </trkpt>
      <trkpt lat="49.00216" lon="1.09792">
        <ele>66.47</ele>
        <time>2012-01-15T08:08:55Z</time>
      </trkpt>
      <trkpt lat="49.00241" lon="1.09843">
        <ele>66.47</ele>
        <time>2012-01-15T08:09:10Z</time>
      </trkpt>
      <trkpt lat="49.00232" lon="1.09901">
        <ele>65.51</ele>
        <time>2012-01-15T08:09:24Z</time>
      </trkpt>
      <trkpt lat="49.00194" lon="1.0994">
        <ele>65.03</ele>
        <time>2012-01-15T08:09:40Z</time>
      </trkpt>
      <trkpt lat="49.00154" lon="1.0998">
        <ele>64.55</ele>
        <time>2012-01-15T08:09:57Z</time>
      </trkpt>
      <trkpt lat="49.00116" lon="1.10017">
        <ele>65.03</ele>
        <time>2012-01-15T08:10:13Z</time>
      </trkpt>
      <trkpt lat="49.00081" lon="1.10048">
        <ele>65.03</ele>
        <time>2012-01-15T08:10:28Z</time>
      </trkpt>
      <trkpt lat="49.00045" lon="1.10062">
        <ele>65.03</ele>
        <time>2012-01-15T08:10:42Z</time>
      </trkpt>
      <trkpt lat="49.00015" lon="1.10072">
        <ele>65.51</ele>
        <time>2012-01-15T08:10:54Z</time>
      </trkpt>
      <trkpt lat="48.99986" lon="1.10092">
        <ele>65.99</ele>
        <time>2012-01-15T08:11:07Z</time>
      </trkpt>
      <trkpt lat="48.99954" lon="1.10111">
        <ele>65.51</ele>
        <time>2012-01-15T08:11:19Z</time>
      </trkpt>
      <trkpt lat="48.99951" lon="1.10112">
        <ele>65.51</ele>
        <time>2012-01-15T08:11:20Z</time>
      </trkpt>
      <trkpt lat="48.99931" lon="1.10069">
        <ele>65.03</ele>
        <time>2012-01-15T08:11:33Z</time>
      </trkpt>
      <trkpt lat="48.99913" lon="1.10015">
        <ele>65.03</ele>
        <time>2012-01-15T08:11:47Z</time>
      </trkpt>
      <trkpt lat="48.99896" lon="1.0997">
        <ele>65.03</ele>
        <time>2012-01-15T08:12:00Z</time>
      </trkpt>
      <trkpt lat="48.99875" lon="1.09912">
        <ele>65.03</ele>
        <time>2012-01-15T08:12:16Z</time>
      </trkpt>
      <trkpt lat="48.99859" lon="1.09866">
        <ele>65.51</ele>
        <time>2012-01-15T08:12:29Z</time>
      </trkpt>
      <trkpt lat="48.99838" lon="1.09798">
        <ele>65.99</ele>
        <time>2012-01-15T08:12:47Z</time>
      </trkpt>
      <trkpt lat="48.99826" lon="1.09735">
        <ele>65.99</ele>
        <time>2012-01-15T08:13:03Z</time>
      </trkpt>
      <trkpt lat="48.99819" lon="1.09667">
        <ele>65.99</ele>
        <time>2012-01-15T08:13:20Z</time>
      </trkpt>
      <trkpt lat="48.99813" lon="1.09603">
        <ele>65.99</ele>
        <time>2012-01-15T08:13:36Z</time>
      </trkpt>
      <trkpt lat="48.99807" lon="1.09557">
        <ele>66.47</ele>
        <time>2012-01-15T08:13:48Z</time>
      </trkpt>
      <trkpt lat="48.99788" lon="1.09496">
        <ele>65.99</ele>
        <time>2012-01-15T08:14:04Z</time>
      </trkpt>
      <trkpt lat="48.99767" lon="1.09439">
        <ele>65.99</ele>
        <time>2012-01-15T08:14:20Z</time>
      </trkpt>
      <trkpt lat="48.99749" lon="1.09375">
        <ele>65.99</ele>
        <time>2012-01-15T08:14:37Z</time>
      </trkpt>
      <trkpt lat="48.99733" lon="1.09322">
        <ele>65.99</ele>
        <time>2012-01-15T08:14:51Z</time>
      </trkpt>
      <trkpt lat="48.9972" lon="1.09271">
        <ele>66.47</ele>
        <time>2012-01-15T08:15:04Z</time>
      </trkpt>
      <trkpt lat="48.9971" lon="1.09226">
        <ele>66.95</ele>
        <time>2012-01-15T08:15:16Z</time>
      </trkpt>
      <trkpt lat="48.99695" lon="1.09176">
        <ele>66.95</ele>
        <time>2012-01-15T08:15:29Z</time>
      </trkpt>
      <trkpt lat="48.99675" lon="1.09113">
        <ele>67.43</ele>
        <time>2012-01-15T08:15:46Z</time>
      </trkpt>
      <trkpt lat="48.99662" lon="1.09067">
        <ele>67.43</ele>
        <time>2012-01-15T08:15:58Z</time>
      </trkpt>
      <trkpt lat="48.99655" lon="1.09013">
        <ele>67.91</ele>
        <time>2012-01-15T08:16:10Z</time>
      </trkpt>
      <trkpt lat="48.99641" lon="1.08965">
        <ele>67.43</ele>
        <time>2012-01-15T08:16:23Z</time>
      </trkpt>
      <trkpt lat="48.99623" lon="1.08914">
        <ele>67.91</ele>
        <time>2012-01-15T08:16:38Z</time>
      </trkpt>
      <trkpt lat="48.99603" lon="1.08851">
        <ele>67.91</ele>
        <time>2012-01-15T08:16:55Z</time>
      </trkpt>
      <trkpt lat="48.99589" lon="1.08803">
        <ele>67.91</ele>
        <time>2012-01-15T08:17:08Z</time>
      </trkpt>
      <trkpt lat="48.99575" lon="1.08756">
        <ele>68.39</ele>
        <time>2012-01-15T08:17:21Z</time>
      </trkpt>
      <trkpt lat="48.9956" lon="1.08707">
        <ele>68.39</ele>
        <time>2012-01-15T08:17:34Z</time>
      </trkpt>
      <trkpt lat="48.99546" lon="1.08647">
        <ele>68.39</ele>
        <time>2012-01-15T08:17:49Z</time>
      </trkpt>
      <trkpt lat="48.99535" lon="1.08593">
        <ele>68.39</ele>
        <time>2012-01-15T08:18:02Z</time>
      </trkpt>
      <trkpt lat="48.99525" lon="1.08532">
        <ele>68.39</ele>
        <time>2012-01-15T08:18:17Z</time>
      </trkpt>
      <trkpt lat="48.99519" lon="1.08482">
        <ele>68.39</ele>
        <time>2012-01-15T08:18:29Z</time>
      </trkpt>
      <trkpt lat="48.99511" lon="1.08432">
        <ele>68.87</ele>
        <time>2012-01-15T08:18:41Z</time>
      </trkpt>
      <trkpt lat="48.99508" lon="1.08379">
        <ele>68.87</ele>
        <time>2012-01-15T08:18:54Z</time>
      </trkpt>
      <trkpt lat="48.99491" lon="1.08309">
        <ele>68.87</ele>
        <time>2012-01-15T08:19:11Z</time>
      </trkpt>
      <trkpt lat="48.99474" lon="1.08244">
        <ele>69.35</ele>
        <time>2012-01-15T08:19:28Z</time>
      </trkpt>
      <trkpt lat="48.99462" lon="1.08187">
        <ele>68.87</ele>
        <time>2012-01-15T08:19:42Z</time>
      </trkpt>
      <trkpt lat="48.99453" lon="1.08124">
        <ele>69.35</ele>
        <time>2012-01-15T08:19:57Z</time>
      </trkpt>
      <trkpt lat="48.99445" lon="1.0806">
        <ele>69.35</ele>
        <time>2012-01-15T08:20:12Z</time>
      </trkpt>
      <trkpt lat="48.99444" lon="1.07998">
        <ele>69.35</ele>
        <time>2012-01-15T08:20:27Z</time>
      </trkpt>
      <trkpt lat="48.99445" lon="1.07946">
        <ele>68.87</ele>
        <time>2012-01-15T08:20:40Z</time>
      </trkpt>
      <trkpt lat="48.99445" lon="1.07881">
        <ele>69.35</ele>
        <time>2012-01-15T08:20:55Z</time>
      </trkpt>
      <trkpt lat="48.99446" lon="1.07824">
        <ele>69.35</ele>
        <time>2012-01-15T08:21:09Z</time>
      </trkpt>
      <trkpt lat="48.99445" lon="1.07765">
        <ele>69.83</ele>
        <time>2012-01-15T08:21:23Z</time>
      </trkpt>
      <trkpt lat="48.9946" lon="1.0772">
        <ele>69.83</ele>
        <time>2012-01-15T08:21:36Z</time>
      </trkpt>
      <trkpt lat="48.99489" lon="1.07693">
        <ele>69.83</ele>
        <time>2012-01-15T08:21:49Z</time>
      </trkpt>
      <trkpt lat="48.9952" lon="1.07671">
        <ele>70.79</ele>
        <time>2012-01-15T08:22:02Z</time>
      </trkpt>
      <trkpt lat="48.99562" lon="1.07648">
        <ele>69.83</ele>
        <time>2012-01-15T08:22:17Z</time>
      </trkpt>
      <trkpt lat="48.99577" lon="1.0763">
        <ele>70.31</ele>
        <time>2012-01-15T08:22:25Z</time>
      </trkpt>
      <trkpt lat="48.99584" lon="1.0758">
        <ele>70.31</ele>
        <time>2012-01-15T08:22:38Z</time>
      </trkpt>
      <trkpt lat="48.99599" lon="1.07541">
        <ele>69.83</ele>
        <time>2012-01-15T08:22:49Z</time>
      </trkpt>
      <trkpt lat="48.99629" lon="1.07521">
        <ele>70.79</ele>
        <time>2012-01-15T08:23:02Z</time>
      </trkpt>
      <trkpt lat="48.99661" lon="1.07497">
        <ele>71.27</ele>
        <time>2012-01-15T08:23:16Z</time>
      </trkpt>
      <trkpt lat="48.99696" lon="1.07467">
        <ele>72.24</ele>
        <time>2012-01-15T08:23:32Z</time>
      </trkpt>
      <trkpt lat="48.99728" lon="1.07438">
        <ele>71.27</ele>
        <time>2012-01-15T08:23:45Z</time>
      </trkpt>
      <trkpt lat="48.99755" lon="1.07421">
        <ele>71.76</ele>
        <time>2012-01-15T08:23:56Z</time>
      </trkpt>
      <trkpt lat="48.99788" lon="1.07395">
        <ele>72.72</ele>
        <time>2012-01-15T08:24:11Z</time>
      </trkpt>
      <trkpt lat="48.99819" lon="1.07371">
        <ele>73.2</ele>
        <time>2012-01-15T08:24:25Z</time>
      </trkpt>
      <trkpt lat="48.99847" lon="1.07374">
        <ele>75.12</ele>
        <time>2012-01-15T08:24:37Z</time>
      </trkpt>
      <trkpt lat="48.9987" lon="1.07393">
        <ele>77.04</ele>
        <time>2012-01-15T08:24:47Z</time>
      </trkpt>
      <trkpt lat="48.9989" lon="1.07403">
        <ele>78.48</ele>
        <time>2012-01-15T08:24:56Z</time>
      </trkpt>
      <trkpt lat="48.99913" lon="1.07412">
        <ele>80.41</ele>
        <time>2012-01-15T08:25:07Z</time>
      </trkpt>
      <trkpt lat="48.9993" lon="1.07419">
        <ele>81.85</ele>
        <time>2012-01-15T08:25:15Z</time>
      </trkpt>
      <trkpt lat="48.99943" lon="1.07419">
        <ele>82.81</ele>
        <time>2012-01-15T08:25:20Z</time>
      </trkpt>
      <trkpt lat="48.99959" lon="1.07418">
        <ele>83.77</ele>
        <time>2012-01-15T08:25:27Z</time>
      </trkpt>
      <trkpt lat="48.99989" lon="1.07417">
        <ele>86.66</ele>
        <time>2012-01-15T08:25:41Z</time>
      </trkpt>
      <trkpt lat="49.00012" lon="1.07418">
        <ele>88.58</ele>
        <time>2012-01-15T08:25:53Z</time>
      </trkpt>
      <trkpt lat="49.00017" lon="1.07418">
        <ele>89.06</ele>
        <time>2012-01-15T08:25:55Z</time>
      </trkpt>
      <trkpt lat="49.00024" lon="1.07398">
        <ele>91.46</ele>
        <time>2012-01-15T08:26:07Z</time>
      </trkpt>
      <trkpt lat="49.00019" lon="1.07379">
        <ele>93.39</ele>
        <time>2012-01-15T08:26:16Z</time>
      </trkpt>
      <trkpt lat="49.00013" lon="1.07368">
        <ele>94.35</ele>
        <time>2012-01-15T08:26:21Z</time>
      </trkpt>
      <trkpt lat="49.00005" lon="1.07358">
        <ele>95.79</ele>
        <time>2012-01-15T08:26:26Z</time>
      </trkpt>
      <trkpt lat="48.9999" lon="1.07336">
        <ele>98.19</ele>
        <time>2012-01-15T08:26:37Z</time>
      </trkpt>
      <trkpt lat="48.99991" lon="1.07285">
        <ele>101.08</ele>
        <time>2012-01-15T08:26:49Z</time>
      </trkpt>
      <trkpt lat="48.99998" lon="1.07267">
        <ele>102.52</ele>
        <time>2012-01-15T08:26:54Z</time>
      </trkpt>
      <trkpt lat="49.00016" lon="1.07231">
        <ele>105.4</ele>
        <time>2012-01-15T08:27:07Z</time>
      </trkpt>
      <trkpt lat="49.00019" lon="1.07227">
        <ele>106.36</ele>
        <time>2012-01-15T08:27:09Z</time>
      </trkpt>
      <trkpt lat="49.00024" lon="1.07218">
        <ele>107.32</ele>
        <time>2012-01-15T08:27:13Z</time>
      </trkpt>
      <trkpt lat="49.00036" lon="1.07206">
        <ele>108.77</ele>
        <time>2012-01-15T08:27:19Z</time>
      </trkpt>
      <trkpt lat="49.00045" lon="1.07199">
        <ele>110.21</ele>
        <time>2012-01-15T08:27:25Z</time>
      </trkpt>
      <trkpt lat="49.0005" lon="1.07184">
        <ele>112.13</ele>
        <time>2012-01-15T08:27:32Z</time>
      </trkpt>
      <trkpt lat="49.00056" lon="1.07153">
        <ele>115.01</ele>
        <time>2012-01-15T08:27:45Z</time>
      </trkpt>
      <trkpt lat="49.00057" lon="1.07143">
        <ele>116.46</ele>
        <time>2012-01-15T08:27:50Z</time>
      </trkpt>
      <trkpt lat="49.00063" lon="1.07099">
        <ele>119.34</ele>
        <time>2012-01-15T08:28:04Z</time>
      </trkpt>
      <trkpt lat="49.00072" lon="1.07064">
        <ele>121.26</ele>
        <time>2012-01-15T08:28:15Z</time>
      </trkpt>
      <trkpt lat="49.00087" lon="1.07035">
        <ele>122.22</ele>
        <time>2012-01-15T08:28:26Z</time>
      </trkpt>
      <trkpt lat="49.00107" lon="1.07002">
        <ele>123.67</ele>
        <time>2012-01-15T08:28:39Z</time>
      </trkpt>
      <trkpt lat="49.00133" lon="1.06983">
        <ele>125.11</ele>
        <time>2012-01-15T08:28:52Z</time>
      </trkpt>
      <trkpt lat="49.00159" lon="1.06972">
        <ele>126.55</ele>
        <time>2012-01-15T08:29:05Z</time>
      </trkpt>
      <trkpt lat="49.00189" lon="1.06955">
        <ele>127.51</ele>
        <time>2012-01-15T08:29:18Z</time>
      </trkpt>
      <trkpt lat="49.00213" lon="1.06946">
        <ele>127.99</ele>
        <time>2012-01-15T08:29:28Z</time>
      </trkpt>
      <trkpt lat="49.00241" lon="1.0694">
        <ele>127.99</ele>
        <time>2012-01-15T08:29:39Z</time>
      </trkpt>
      <trkpt lat="49.00268" lon="1.06926">
        <ele>128.47</ele>
        <time>2012-01-15T08:29:51Z</time>
      </trkpt>
      <trkpt lat="49.00291" lon="1.06909">
        <ele>128.47</ele>
        <time>2012-01-15T08:30:01Z</time>
      </trkpt>
      <trkpt lat="49.00318" lon="1.06875">
        <ele>128.47</ele>
        <time>2012-01-15T08:30:15Z</time>
      </trkpt>
      <trkpt lat="49.00339" lon="1.06841">
        <ele>128.95</ele>
        <time>2012-01-15T08:30:28Z</time>
      </trkpt>
      <trkpt lat="49.0036" lon="1.06803">
        <ele>129.43</ele>
        <time>2012-01-15T08:30:40Z</time>
      </trkpt>
      <trkpt lat="49.00381" lon="1.06779">
        <ele>128.95</ele>
        <time>2012-01-15T08:30:51Z</time>
      </trkpt>
      <trkpt lat="49.00403" lon="1.0676">
        <ele>129.43</ele>
        <time>2012-01-15T08:31:01Z</time>
      </trkpt>
      <trkpt lat="49.00429" lon="1.06737">
        <ele>128.47</ele>
        <time>2012-01-15T08:31:12Z</time>
      </trkpt>
      <trkpt lat="49.00458" lon="1.06708">
        <ele>127.03</ele>
        <time>2012-01-15T08:31:24Z</time>
      </trkpt>
      <trkpt lat="49.00501" lon="1.06687">
        <ele>125.59</ele>
        <time>2012-01-15T08:31:39Z</time>
      </trkpt>
      <trkpt lat="49.00538" lon="1.06678">
        <ele>124.63</ele>
        <time>2012-01-15T08:31:51Z</time>
      </trkpt>
      <trkpt lat="49.00565" lon="1.06669">
        <ele>124.15</ele>
        <time>2012-01-15T08:32:01Z</time>
      </trkpt>
      <trkpt lat="49.00596" lon="1.06654">
        <ele>124.63</ele>
        <time>2012-01-15T08:32:14Z</time>
      </trkpt>
      <trkpt lat="49.00628" lon="1.06647">
        <ele>124.63</ele>
        <time>2012-01-15T08:32:26Z</time>
      </trkpt>
      <trkpt lat="49.00663" lon="1.06637">
        <ele>125.59</ele>
        <time>2012-01-15T08:32:39Z</time>
      </trkpt>
      <trkpt lat="49.00687" lon="1.06625">
        <ele>126.55</ele>
        <time>2012-01-15T08:32:50Z</time>
      </trkpt>
      <trkpt lat="49.00709" lon="1.06588">
        <ele>127.03</ele>
        <time>2012-01-15T08:33:03Z</time>
      </trkpt>
      <trkpt lat="49.00735" lon="1.06547">
        <ele>127.99</ele>
        <time>2012-01-15T08:33:17Z</time>
      </trkpt>
      <trkpt lat="49.00766" lon="1.06514">
        <ele>127.99</ele>
        <time>2012-01-15T08:33:31Z</time>
      </trkpt>
      <trkpt lat="49.00796" lon="1.06482">
        <ele>127.51</ele>
        <time>2012-01-15T08:33:44Z</time>
      </trkpt>
      <trkpt lat="49.00829" lon="1.06461">
        <ele>127.03</ele>
        <time>2012-01-15T08:33:57Z</time>
      </trkpt>
      <trkpt lat="49.00866" lon="1.06441">
        <ele>127.03</ele>
        <time>2012-01-15T08:34:11Z</time>
      </trkpt>
      <trkpt lat="49.00908" lon="1.06415">
        <ele>126.07</ele>
        <time>2012-01-15T08:34:27Z</time>
      </trkpt>
      <trkpt lat="49.00952" lon="1.06374">
        <ele>122.71</ele>
        <time>2012-01-15T08:34:43Z</time>
      </trkpt>
      <trkpt lat="49.00992" lon="1.06333">
        <ele>120.3</ele>
        <time>2012-01-15T08:34:57Z</time>
      </trkpt>
      <trkpt lat="49.01023" lon="1.06279">
        <ele>118.38</ele>
        <time>2012-01-15T08:35:11Z</time>
      </trkpt>
      <trkpt lat="49.01047" lon="1.0623">
        <ele>116.94</ele>
        <time>2012-01-15T08:35:24Z</time>
      </trkpt>
      <trkpt lat="49.01073" lon="1.06192">
        <ele>117.42</ele>
        <time>2012-01-15T08:35:37Z</time>
      </trkpt>
      <trkpt lat="49.01108" lon="1.06167">
        <ele>118.86</ele>
        <time>2012-01-15T08:35:51Z</time>
      </trkpt>
      <trkpt lat="49.01151" lon="1.06142">
        <ele>119.82</ele>
        <time>2012-01-15T08:36:08Z</time>
      </trkpt>
      <trkpt lat="49.01181" lon="1.06123">
        <ele>120.3</ele>
        <time>2012-01-15T08:36:20Z</time>
      </trkpt>
      <trkpt lat="49.01214" lon="1.06103">
        <ele>120.78</ele>
        <time>2012-01-15T08:36:33Z</time>
      </trkpt>
      <trkpt lat="49.01257" lon="1.06092">
        <ele>120.78</ele>
        <time>2012-01-15T08:36:48Z</time>
      </trkpt>
      <trkpt lat="49.01289" lon="1.0609">
        <ele>121.26</ele>
        <time>2012-01-15T08:37:00Z</time>
      </trkpt>
      <trkpt lat="49.0133" lon="1.06075">
        <ele>120.3</ele>
        <time>2012-01-15T08:37:16Z</time>
      </trkpt>
      <trkpt lat="49.01368" lon="1.06052">
        <ele>118.86</ele>
        <time>2012-01-15T08:37:30Z</time>
      </trkpt>
      <trkpt lat="49.01389" lon="1.06002">
        <ele>117.42</ele>
        <time>2012-01-15T08:37:43Z</time>
      </trkpt>
      <trkpt lat="49.01393" lon="1.05935">
        <ele>115.5</ele>
        <time>2012-01-15T08:37:58Z</time>
      </trkpt>
      <trkpt lat="49.0141" lon="1.05895">
        <ele>112.13</ele>
        <time>2012-01-15T08:38:09Z</time>
      </trkpt>
      <trkpt lat="49.01442" lon="1.05921">
        <ele>109.25</ele>
        <time>2012-01-15T08:38:19Z</time>
      </trkpt>
      <trkpt lat="49.01454" lon="1.05986">
        <ele>105.88</ele>
        <time>2012-01-15T08:38:32Z</time>
      </trkpt>
      <trkpt lat="49.01469" lon="1.0604">
        <ele>103</ele>
        <time>2012-01-15T08:38:43Z</time>
      </trkpt>
      <trkpt lat="49.01483" lon="1.06082">
        <ele>99.63</ele>
        <time>2012-01-15T08:38:52Z</time>
      </trkpt>
      <trkpt lat="49.01502" lon="1.06133">
        <ele>97.71</ele>
        <time>2012-01-15T08:39:04Z</time>
      </trkpt>
      <trkpt lat="49.01528" lon="1.0618">
        <ele>96.75</ele>
        <time>2012-01-15T08:39:18Z</time>
      </trkpt>
      <trkpt lat="49.01552" lon="1.06205">
        <ele>98.19</ele>
        <time>2012-01-15T08:39:30Z</time>
      </trkpt>
      <trkpt lat="49.01574" lon="1.06222">
        <ele>100.6</ele>
        <time>2012-01-15T08:39:41Z</time>
      </trkpt>
      <trkpt lat="49.01594" lon="1.06228">
        <ele>103.96</ele>
        <time>2012-01-15T08:39:53Z</time>
      </trkpt>
      <trkpt lat="49.01602" lon="1.06221">
        <ele>105.88</ele>
        <time>2012-01-15T08:40:00Z</time>
      </trkpt>
      <trkpt lat="49.01607" lon="1.06215">
        <ele>106.84</ele>
        <time>2012-01-15T08:40:04Z</time>
      </trkpt>
      <trkpt lat="49.01626" lon="1.06192">
        <ele>110.69</ele>
        <time>2012-01-15T08:40:18Z</time>
      </trkpt>
      <trkpt lat="49.01645" lon="1.06163">
        <ele>113.57</ele>
        <time>2012-01-15T08:40:32Z</time>
      </trkpt>
      <trkpt lat="49.01674" lon="1.06144">
        <ele>116.46</ele>
        <time>2012-01-15T08:40:48Z</time>
      </trkpt>
      <trkpt lat="49.01706" lon="1.06133">
        <ele>118.86</ele>
        <time>2012-01-15T08:41:04Z</time>
      </trkpt>
      <trkpt lat="49.01736" lon="1.06132">
        <ele>119.34</ele>
        <time>2012-01-15T08:41:17Z</time>
      </trkpt>
      <trkpt lat="49.01767" lon="1.06132">
        <ele>119.34</ele>
        <time>2012-01-15T08:41:31Z</time>
      </trkpt>
      <trkpt lat="49.018" lon="1.06122">
        <ele>118.86</ele>
        <time>2012-01-15T08:41:46Z</time>
      </trkpt>
      <trkpt lat="49.01804" lon="1.06121">
        <ele>118.86</ele>
        <time>2012-01-15T08:41:48Z</time>
      </trkpt>
      <trkpt lat="49.01818" lon="1.0616">
        <ele>118.86</ele>
        <time>2012-01-15T08:42:01Z</time>
      </trkpt>
      <trkpt lat="49.0183" lon="1.06223">
        <ele>117.9</ele>
        <time>2012-01-15T08:42:18Z</time>
      </trkpt>
      <trkpt lat="49.01839" lon="1.06285">
        <ele>117.42</ele>
        <time>2012-01-15T08:42:35Z</time>
      </trkpt>
      <trkpt lat="49.01847" lon="1.06339">
        <ele>117.42</ele>
        <time>2012-01-15T08:42:50Z</time>
      </trkpt>
      <trkpt lat="49.01856" lon="1.064">
        <ele>116.94</ele>
        <time>2012-01-15T08:43:07Z</time>
      </trkpt>
      <trkpt lat="49.01864" lon="1.06455">
        <ele>116.46</ele>
        <time>2012-01-15T08:43:21Z</time>
      </trkpt>
      <trkpt lat="49.01865" lon="1.06516">
        <ele>115.98</ele>
        <time>2012-01-15T08:43:36Z</time>
      </trkpt>
      <trkpt lat="49.01865" lon="1.06575">
        <ele>115.5</ele>
        <time>2012-01-15T08:43:51Z</time>
      </trkpt>
      <trkpt lat="49.01867" lon="1.06633">
        <ele>115.01</ele>
        <time>2012-01-15T08:44:06Z</time>
      </trkpt>
      <trkpt lat="49.01867" lon="1.0669">
        <ele>114.53</ele>
        <time>2012-01-15T08:44:20Z</time>
      </trkpt>
      <trkpt lat="49.01868" lon="1.06761">
        <ele>113.57</ele>
        <time>2012-01-15T08:44:37Z</time>
      </trkpt>
      <trkpt lat="49.01871" lon="1.06825">
        <ele>111.17</ele>
        <time>2012-01-15T08:44:52Z</time>
      </trkpt>
      <trkpt lat="49.0187" lon="1.06879">
        <ele>109.73</ele>
        <time>2012-01-15T08:45:05Z</time>
      </trkpt>
      <trkpt lat="49.01871" lon="1.06939">
        <ele>107.81</ele>
        <time>2012-01-15T08:45:19Z</time>
      </trkpt>
      <trkpt lat="49.01867" lon="1.07003">
        <ele>105.88</ele>
        <time>2012-01-15T08:45:33Z</time>
      </trkpt>
      <trkpt lat="49.01864" lon="1.07059">
        <ele>103.96</ele>
        <time>2012-01-15T08:45:45Z</time>
      </trkpt>
      <trkpt lat="49.01861" lon="1.07139">
        <ele>101.08</ele>
        <time>2012-01-15T08:46:02Z</time>
      </trkpt>
      <trkpt lat="49.01863" lon="1.072">
        <ele>98.19</ele>
        <time>2012-01-15T08:46:14Z</time>
      </trkpt>
      <trkpt lat="49.01863" lon="1.0725">
        <ele>94.83</ele>
        <time>2012-01-15T08:46:23Z</time>
      </trkpt>
      <trkpt lat="49.01864" lon="1.07317">
        <ele>92.9</ele>
        <time>2012-01-15T08:46:35Z</time>
      </trkpt>
      <trkpt lat="49.01866" lon="1.07372">
        <ele>90.5</ele>
        <time>2012-01-15T08:46:46Z</time>
      </trkpt>
      <trkpt lat="49.01875" lon="1.07422">
        <ele>90.5</ele>
        <time>2012-01-15T08:46:59Z</time>
      </trkpt>
      <trkpt lat="49.01896" lon="1.07465">
        <ele>89.06</ele>
        <time>2012-01-15T08:47:11Z</time>
      </trkpt>
      <trkpt lat="49.01919" lon="1.07512">
        <ele>87.14</ele>
        <time>2012-01-15T08:47:24Z</time>
      </trkpt>
      <trkpt lat="49.01945" lon="1.07563">
        <ele>85.69</ele>
        <time>2012-01-15T08:47:39Z</time>
      </trkpt>
      <trkpt lat="49.01965" lon="1.07608">
        <ele>86.18</ele>
        <time>2012-01-15T08:47:52Z</time>
      </trkpt>
      <trkpt lat="49.01983" lon="1.07648">
        <ele>86.18</ele>
        <time>2012-01-15T08:48:04Z</time>
      </trkpt>
      <trkpt lat="49.02005" lon="1.07695">
        <ele>85.69</ele>
        <time>2012-01-15T08:48:19Z</time>
      </trkpt>
      <trkpt lat="49.02029" lon="1.07736">
        <ele>85.69</ele>
        <time>2012-01-15T08:48:33Z</time>
      </trkpt>
      <trkpt lat="49.02035" lon="1.07781">
        <ele>86.66</ele>
        <time>2012-01-15T08:48:46Z</time>
      </trkpt>
      <trkpt lat="49.02015" lon="1.07816">
        <ele>88.58</ele>
        <time>2012-01-15T08:48:59Z</time>
      </trkpt>
      <trkpt lat="49.01989" lon="1.07829">
        <ele>91.46</ele>
        <time>2012-01-15T08:49:12Z</time>
      </trkpt>
      <trkpt lat="49.01959" lon="1.07831">
        <ele>94.35</ele>
        <time>2012-01-15T08:49:25Z</time>
      </trkpt>
      <trkpt lat="49.01946" lon="1.07825">
        <ele>95.79</ele>
        <time>2012-01-15T08:49:31Z</time>
      </trkpt>
      <trkpt lat="49.01935" lon="1.07825">
        <ele>96.75</ele>
        <time>2012-01-15T08:49:36Z</time>
      </trkpt>
      <trkpt lat="49.01915" lon="1.0783">
        <ele>99.15</ele>
        <time>2012-01-15T08:49:47Z</time>
      </trkpt>
      <trkpt lat="49.0189" lon="1.07838">
        <ele>102.04</ele>
        <time>2012-01-15T08:49:59Z</time>
      </trkpt>
      <trkpt lat="49.01883" lon="1.0784">
        <ele>103.48</ele>
        <time>2012-01-15T08:50:03Z</time>
      </trkpt>
      <trkpt lat="49.01875" lon="1.07846">
        <ele>104.92</ele>
        <time>2012-01-15T08:50:09Z</time>
      </trkpt>
      <trkpt lat="49.01852" lon="1.07855">
        <ele>107.81</ele>
        <time>2012-01-15T08:50:23Z</time>
      </trkpt>
      <trkpt lat="49.01833" lon="1.07863">
        <ele>110.69</ele>
        <time>2012-01-15T08:50:37Z</time>
      </trkpt>
      <trkpt lat="49.01808" lon="1.07867">
        <ele>114.05</ele>
        <time>2012-01-15T08:50:51Z</time>
      </trkpt>
      <trkpt lat="49.01792" lon="1.07883">
        <ele>115.98</ele>
        <time>2012-01-15T08:51:04Z</time>
      </trkpt>
      <trkpt lat="49.01791" lon="1.07885">
        <ele>116.46</ele>
        <time>2012-01-15T08:51:05Z</time>
      </trkpt>
      <trkpt lat="49.01797" lon="1.07916">
        <ele>117.42</ele>
        <time>2012-01-15T08:51:19Z</time>
      </trkpt>
      <trkpt lat="49.01803" lon="1.07932">
        <ele>117.9</ele>
        <time>2012-01-15T08:51:26Z</time>
      </trkpt>
      <trkpt lat="49.01812" lon="1.07956">
        <ele>118.38</ele>
        <time>2012-01-15T08:51:36Z</time>
      </trkpt>
      <trkpt lat="49.01815" lon="1.07961">
        <ele>118.86</ele>
        <time>2012-01-15T08:51:38Z</time>
      </trkpt>
      <trkpt lat="49.01821" lon="1.07982">
        <ele>118.86</ele>
        <time>2012-01-15T08:51:45Z</time>
      </trkpt>
      <trkpt lat="49.01826" lon="1.0802">
        <ele>118.86</ele>
        <time>2012-01-15T08:51:57Z</time>
      </trkpt>
      <trkpt lat="49.01834" lon="1.08049">
        <ele>119.82</ele>
        <time>2012-01-15T08:52:07Z</time>
      </trkpt>
      <trkpt lat="49.01834" lon="1.08055">
        <ele>119.82</ele>
        <time>2012-01-15T08:52:09Z</time>
      </trkpt>
      <trkpt lat="49.01835" lon="1.08066">
        <ele>120.3</ele>
        <time>2012-01-15T08:52:13Z</time>
      </trkpt>
      <trkpt lat="49.01839" lon="1.08077">
        <ele>120.78</ele>
        <time>2012-01-15T08:52:17Z</time>
      </trkpt>
      <trkpt lat="49.01847" lon="1.0811">
        <ele>121.74</ele>
        <time>2012-01-15T08:52:28Z</time>
      </trkpt>
      <trkpt lat="49.01847" lon="1.0812">
        <ele>121.74</ele>
        <time>2012-01-15T08:52:32Z</time>
      </trkpt>
      <trkpt lat="49.01848" lon="1.08126">
        <ele>122.22</ele>
        <time>2012-01-15T08:52:34Z</time>
      </trkpt>
      <trkpt lat="49.01857" lon="1.08146">
        <ele>122.22</ele>
        <time>2012-01-15T08:52:41Z</time>
      </trkpt>
      <trkpt lat="49.01864" lon="1.0818">
        <ele>122.22</ele>
        <time>2012-01-15T08:52:51Z</time>
      </trkpt>
      <trkpt lat="49.01866" lon="1.08187">
        <ele>122.71</ele>
        <time>2012-01-15T08:52:54Z</time>
      </trkpt>
      <trkpt lat="49.01869" lon="1.08204">
        <ele>123.19</ele>
        <time>2012-01-15T08:53:00Z</time>
      </trkpt>
      <trkpt lat="49.01879" lon="1.08254">
        <ele>123.19</ele>
        <time>2012-01-15T08:53:13Z</time>
      </trkpt>
      <trkpt lat="49.01888" lon="1.08291">
        <ele>123.67</ele>
        <time>2012-01-15T08:53:23Z</time>
      </trkpt>
      <trkpt lat="49.01899" lon="1.08332">
        <ele>124.15</ele>
        <time>2012-01-15T08:53:34Z</time>
      </trkpt>
      <trkpt lat="49.01905" lon="1.08357">
        <ele>123.67</ele>
        <time>2012-01-15T08:53:40Z</time>
      </trkpt>
      <trkpt lat="49.0191" lon="1.08374">
        <ele>123.67</ele>
        <time>2012-01-15T08:53:44Z</time>
      </trkpt>
      <trkpt lat="49.01915" lon="1.08392">
        <ele>123.67</ele>
        <time>2012-01-15T08:53:48Z</time>
      </trkpt>
      <trkpt lat="49.01916" lon="1.08412">
        <ele>123.19</ele>
        <time>2012-01-15T08:53:53Z</time>
      </trkpt>
      <trkpt lat="49.01929" lon="1.08464">
        <ele>123.19</ele>
        <time>2012-01-15T08:54:05Z</time>
      </trkpt>
      <trkpt lat="49.01934" lon="1.0848">
        <ele>123.19</ele>
        <time>2012-01-15T08:54:09Z</time>
      </trkpt>
      <trkpt lat="49.01938" lon="1.08499">
        <ele>122.71</ele>
        <time>2012-01-15T08:54:14Z</time>
      </trkpt>
      <trkpt lat="49.01942" lon="1.08527">
        <ele>122.71</ele>
        <time>2012-01-15T08:54:21Z</time>
      </trkpt>
      <trkpt lat="49.01946" lon="1.08543">
        <ele>122.71</ele>
        <time>2012-01-15T08:54:25Z</time>
      </trkpt>
      <trkpt lat="49.01962" lon="1.08601">
        <ele>122.71</ele>
        <time>2012-01-15T08:54:40Z</time>
      </trkpt>
      <trkpt lat="49.01968" lon="1.08625">
        <ele>122.22</ele>
        <time>2012-01-15T08:54:46Z</time>
      </trkpt>
      <trkpt lat="49.01978" lon="1.08677">
        <ele>121.74</ele>
        <time>2012-01-15T08:54:59Z</time>
      </trkpt>
      <trkpt lat="49.01991" lon="1.0872">
        <ele>121.26</ele>
        <time>2012-01-15T08:55:10Z</time>
      </trkpt>
      <trkpt lat="49.02006" lon="1.08767">
        <ele>120.78</ele>
        <time>2012-01-15T08:55:22Z</time>
      </trkpt>
      <trkpt lat="49.02012" lon="1.08786">
        <ele>120.78</ele>
        <time>2012-01-15T08:55:27Z</time>
      </trkpt>
      <trkpt lat="49.02021" lon="1.08842">
        <ele>120.78</ele>
        <time>2012-01-15T08:55:40Z</time>
      </trkpt>
      <trkpt lat="49.02036" lon="1.08895">
        <ele>120.3</ele>
        <time>2012-01-15T08:55:53Z</time>
      </trkpt>
      <trkpt lat="49.0204" lon="1.08916">
        <ele>119.82</ele>
        <time>2012-01-15T08:55:58Z</time>
      </trkpt>
      <trkpt lat="49.02054" lon="1.08964">
        <ele>118.86</ele>
        <time>2012-01-15T08:56:10Z</time>
      </trkpt>
      <trkpt lat="49.02067" lon="1.0901">
        <ele>118.38</ele>
        <time>2012-01-15T08:56:22Z</time>
      </trkpt>
      <trkpt lat="49.02072" lon="1.09036">
        <ele>118.38</ele>
        <time>2012-01-15T08:56:28Z</time>
      </trkpt>
      <trkpt lat="49.02073" lon="1.09055">
        <ele>117.9</ele>
        <time>2012-01-15T08:56:33Z</time>
      </trkpt>
      <trkpt lat="49.02078" lon="1.09077">
        <ele>117.42</ele>
        <time>2012-01-15T08:56:38Z</time>
      </trkpt>
      <trkpt lat="49.02092" lon="1.09117">
        <ele>115.98</ele>
        <time>2012-01-15T08:56:47Z</time>
      </trkpt>
      <trkpt lat="49.02104" lon="1.09159">
        <ele>115.01</ele>
        <time>2012-01-15T08:56:57Z</time>
      </trkpt>
      <trkpt lat="49.02114" lon="1.09211">
        <ele>113.57</ele>
        <time>2012-01-15T08:57:08Z</time>
      </trkpt>
      <trkpt lat="49.0212" lon="1.09252">
        <ele>113.09</ele>
        <time>2012-01-15T08:57:18Z</time>
      </trkpt>
      <trkpt lat="49.02093" lon="1.0928">
        <ele>115.01</ele>
        <time>2012-01-15T08:57:31Z</time>
      </trkpt>
      <trkpt lat="49.02063" lon="1.0929">
        <ele>117.42</ele>
        <time>2012-01-15T08:57:45Z</time>
      </trkpt>
      <trkpt lat="49.02055" lon="1.09291">
        <ele>117.42</ele>
        <time>2012-01-15T08:57:48Z</time>
      </trkpt>
      <trkpt lat="49.02046" lon="1.09298">
        <ele>117.9</ele>
        <time>2012-01-15T08:57:53Z</time>
      </trkpt>
      <trkpt lat="49.02044" lon="1.09304">
        <ele>118.38</ele>
        <time>2012-01-15T08:57:56Z</time>
      </trkpt>
      <trkpt lat="49.02038" lon="1.09311">
        <ele>118.38</ele>
        <time>2012-01-15T08:58:01Z</time>
      </trkpt>
      <trkpt lat="49.02019" lon="1.09295">
        <ele>118.86</ele>
        <time>2012-01-15T08:58:09Z</time>
      </trkpt>
      <trkpt lat="49.01998" lon="1.09256">
        <ele>119.82</ele>
        <time>2012-01-15T08:58:23Z</time>
      </trkpt>
      <trkpt lat="49.01988" lon="1.09205">
        <ele>120.3</ele>
        <time>2012-01-15T08:58:35Z</time>
      </trkpt>
      <trkpt lat="49.01978" lon="1.09154">
        <ele>120.78</ele>
        <time>2012-01-15T08:58:48Z</time>
      </trkpt>
      <trkpt lat="49.01971" lon="1.09131">
        <ele>121.26</ele>
        <time>2012-01-15T08:58:56Z</time>
      </trkpt>
      <trkpt lat="49.01942" lon="1.09135">
        <ele>121.74</ele>
        <time>2012-01-15T08:59:09Z</time>
      </trkpt>
      <trkpt lat="49.01909" lon="1.09136">
        <ele>122.71</ele>
        <time>2012-01-15T08:59:22Z</time>
      </trkpt>
      <trkpt lat="49.01871" lon="1.09121">
        <ele>123.67</ele>
        <time>2012-01-15T08:59:37Z</time>
      </trkpt>
      <trkpt lat="49.0184" lon="1.09095">
        <ele>124.63</ele>
        <time>2012-01-15T08:59:51Z</time>
      </trkpt>
      <trkpt lat="49.01808" lon="1.09067">
        <ele>124.63</ele>
        <time>2012-01-15T09:00:05Z</time>
      </trkpt>
      <trkpt lat="49.01777" lon="1.0904">
        <ele>124.63</ele>
        <time>2012-01-15T09:00:19Z</time>
      </trkpt>
      <trkpt lat="49.01744" lon="1.09019">
        <ele>124.63</ele>
        <time>2012-01-15T09:00:33Z</time>
      </trkpt>
      <trkpt lat="49.01726" lon="1.08989">
        <ele>125.11</ele>
        <time>2012-01-15T09:00:45Z</time>
      </trkpt>
      <trkpt lat="49.01703" lon="1.08951">
        <ele>125.11</ele>
        <time>2012-01-15T09:00:57Z</time>
      </trkpt>
      <trkpt lat="49.01675" lon="1.08932">
        <ele>124.63</ele>
        <time>2012-01-15T09:01:09Z</time>
      </trkpt>
      <trkpt lat="49.01642" lon="1.08921">
        <ele>124.63</ele>
        <time>2012-01-15T09:01:22Z</time>
      </trkpt>
      <trkpt lat="49.01621" lon="1.08917">
        <ele>123.67</ele>
        <time>2012-01-15T09:01:30Z</time>
      </trkpt>
      <trkpt lat="49.01613" lon="1.08928">
        <ele>123.67</ele>
        <time>2012-01-15T09:01:35Z</time>
      </trkpt>
      <trkpt lat="49.01617" lon="1.08983">
        <ele>124.63</ele>
        <time>2012-01-15T09:01:50Z</time>
      </trkpt>
      <trkpt lat="49.01616" lon="1.0904">
        <ele>124.63</ele>
        <time>2012-01-15T09:02:05Z</time>
      </trkpt>
      <trkpt lat="49.01619" lon="1.091">
        <ele>125.11</ele>
        <time>2012-01-15T09:02:20Z</time>
      </trkpt>
      <trkpt lat="49.01621" lon="1.09156">
        <ele>126.07</ele>
        <time>2012-01-15T09:02:34Z</time>
      </trkpt>
      <trkpt lat="49.01625" lon="1.09224">
        <ele>126.55</ele>
        <time>2012-01-15T09:02:51Z</time>
      </trkpt>
      <trkpt lat="49.01628" lon="1.09272">
        <ele>126.55</ele>
        <time>2012-01-15T09:03:04Z</time>
      </trkpt>
      <trkpt lat="49.0163" lon="1.09288">
        <ele>126.55</ele>
        <time>2012-01-15T09:03:08Z</time>
      </trkpt>
      <trkpt lat="49.01627" lon="1.09301">
        <ele>127.03</ele>
        <time>2012-01-15T09:03:12Z</time>
      </trkpt>
      <trkpt lat="49.01581" lon="1.09304">
        <ele>127.03</ele>
        <time>2012-01-15T09:03:27Z</time>
      </trkpt>
      <trkpt lat="49.01545" lon="1.09304">
        <ele>126.07</ele>
        <time>2012-01-15T09:03:40Z</time>
      </trkpt>
      <trkpt lat="49.0152" lon="1.09299">
        <ele>125.59</ele>
        <time>2012-01-15T09:03:49Z</time>
      </trkpt>
      <trkpt lat="49.0149" lon="1.09257">
        <ele>124.63</ele>
        <time>2012-01-15T09:04:04Z</time>
      </trkpt>
      <trkpt lat="49.01469" lon="1.09225">
        <ele>123.67</ele>
        <time>2012-01-15T09:04:15Z</time>
      </trkpt>
      <trkpt lat="49.01453" lon="1.09222">
        <ele>123.19</ele>
        <time>2012-01-15T09:04:21Z</time>
      </trkpt>
      <trkpt lat="49.01411" lon="1.0923">
        <ele>121.74</ele>
        <time>2012-01-15T09:04:36Z</time>
      </trkpt>
      <trkpt lat="49.01393" lon="1.09169">
        <ele>120.3</ele>
        <time>2012-01-15T09:04:50Z</time>
      </trkpt>
      <trkpt lat="49.0136" lon="1.09149">
        <ele>118.38</ele>
        <time>2012-01-15T09:05:02Z</time>
      </trkpt>
      <trkpt lat="49.01322" lon="1.09137">
        <ele>118.86</ele>
        <time>2012-01-15T09:05:17Z</time>
      </trkpt>
      <trkpt lat="49.0128" lon="1.0913">
        <ele>120.3</ele>
        <time>2012-01-15T09:05:33Z</time>
      </trkpt>
      <trkpt lat="49.01249" lon="1.09128">
        <ele>121.74</ele>
        <time>2012-01-15T09:05:45Z</time>
      </trkpt>
      <trkpt lat="49.01237" lon="1.0913">
        <ele>122.71</ele>
        <time>2012-01-15T09:05:50Z</time>
      </trkpt>
      <trkpt lat="49.01204" lon="1.09135">
        <ele>123.67</ele>
        <time>2012-01-15T09:06:04Z</time>
      </trkpt>
      <trkpt lat="49.01175" lon="1.09161">
        <ele>125.11</ele>
        <time>2012-01-15T09:06:17Z</time>
      </trkpt>
      <trkpt lat="49.01159" lon="1.09161">
        <ele>126.55</ele>
        <time>2012-01-15T09:06:23Z</time>
      </trkpt>
      <trkpt lat="49.01124" lon="1.09167">
        <ele>129.43</ele>
        <time>2012-01-15T09:06:38Z</time>
      </trkpt>
      <trkpt lat="49.01098" lon="1.09134">
        <ele>130.88</ele>
        <time>2012-01-15T09:06:51Z</time>
      </trkpt>
      <trkpt lat="49.01099" lon="1.09076">
        <ele>130.88</ele>
        <time>2012-01-15T09:07:05Z</time>
      </trkpt>
      <trkpt lat="49.01102" lon="1.09024">
        <ele>129.43</ele>
        <time>2012-01-15T09:07:18Z</time>
      </trkpt>
      <trkpt lat="49.01087" lon="1.08979">
        <ele>128.95</ele>
        <time>2012-01-15T09:07:32Z</time>
      </trkpt>
      <trkpt lat="49.01068" lon="1.08942">
        <ele>128.95</ele>
        <time>2012-01-15T09:07:45Z</time>
      </trkpt>
      <trkpt lat="49.01043" lon="1.08897">
        <ele>128.95</ele>
        <time>2012-01-15T09:08:01Z</time>
      </trkpt>
      <trkpt lat="49.01015" lon="1.0885">
        <ele>128.47</ele>
        <time>2012-01-15T09:08:17Z</time>
      </trkpt>
      <trkpt lat="49.00983" lon="1.08818">
        <ele>128.95</ele>
        <time>2012-01-15T09:08:32Z</time>
      </trkpt>
      <trkpt lat="49.00953" lon="1.08791">
        <ele>128.95</ele>
        <time>2012-01-15T09:08:46Z</time>
      </trkpt>
      <trkpt lat="49.00921" lon="1.08793">
        <ele>129.43</ele>
        <time>2012-01-15T09:08:59Z</time>
      </trkpt>
      <trkpt lat="49.00884" lon="1.08793">
        <ele>129.92</ele>
        <time>2012-01-15T09:09:12Z</time>
      </trkpt>
      <trkpt lat="49.00843" lon="1.08794">
        <ele>129.43</ele>
        <time>2012-01-15T09:09:27Z</time>
      </trkpt>
      <trkpt lat="49.00824" lon="1.08764">
        <ele>129.43</ele>
        <time>2012-01-15T09:09:37Z</time>
      </trkpt>
      <trkpt lat="49.00823" lon="1.08761">
        <ele>129.43</ele>
        <time>2012-01-15T09:09:38Z</time>
      </trkpt>
      <trkpt lat="49.00814" lon="1.08744">
        <ele>129.43</ele>
        <time>2012-01-15T09:09:45Z</time>
      </trkpt>
      <trkpt lat="49.00798" lon="1.0875">
        <ele>128.95</ele>
        <time>2012-01-15T09:09:54Z</time>
      </trkpt>
      <trkpt lat="49.00761" lon="1.08769">
        <ele>128.95</ele>
        <time>2012-01-15T09:10:08Z</time>
      </trkpt>
      <trkpt lat="49.0072" lon="1.08796">
        <ele>128.47</ele>
        <time>2012-01-15T09:10:24Z</time>
      </trkpt>
      <trkpt lat="49.00682" lon="1.08814">
        <ele>128.47</ele>
        <time>2012-01-15T09:10:41Z</time>
      </trkpt>
      <trkpt lat="49.00653" lon="1.08832">
        <ele>128.47</ele>
        <time>2012-01-15T09:10:53Z</time>
      </trkpt>
      <trkpt lat="49.00619" lon="1.08851">
        <ele>128.47</ele>
        <time>2012-01-15T09:11:07Z</time>
      </trkpt>
      <trkpt lat="49.00584" lon="1.0887">
        <ele>128.47</ele>
        <time>2012-01-15T09:11:21Z</time>
      </trkpt>
      <trkpt lat="49.00552" lon="1.08892">
        <ele>128.47</ele>
        <time>2012-01-15T09:11:34Z</time>
      </trkpt>
      <trkpt lat="49.00514" lon="1.08915">
        <ele>129.43</ele>
        <time>2012-01-15T09:11:49Z</time>
      </trkpt>
      <trkpt lat="49.00469" lon="1.0894">
        <ele>128.95</ele>
        <time>2012-01-15T09:12:06Z</time>
      </trkpt>
      <trkpt lat="49.00433" lon="1.08961">
        <ele>128.95</ele>
        <time>2012-01-15T09:12:20Z</time>
      </trkpt>
      <trkpt lat="49.00394" lon="1.08983">
        <ele>127.99</ele>
        <time>2012-01-15T09:12:34Z</time>
      </trkpt>
      <trkpt lat="49.00355" lon="1.09006">
        <ele>126.55</ele>
        <time>2012-01-15T09:12:48Z</time>
      </trkpt>
      <trkpt lat="49.00311" lon="1.09029">
        <ele>125.11</ele>
        <time>2012-01-15T09:13:03Z</time>
      </trkpt>
      <trkpt lat="49.00275" lon="1.09052">
        <ele>121.74</ele>
        <time>2012-01-15T09:13:14Z</time>
      </trkpt>
      <trkpt lat="49.00259" lon="1.0908">
        <ele>119.82</ele>
        <time>2012-01-15T09:13:21Z</time>
      </trkpt>
      <trkpt lat="49.00233" lon="1.09058">
        <ele>119.82</ele>
        <time>2012-01-15T09:13:31Z</time>
      </trkpt>
      <trkpt lat="49.00212" lon="1.09007">
        <ele>119.82</ele>
        <time>2012-01-15T09:13:44Z</time>
      </trkpt>
      <trkpt lat="49.00208" lon="1.08964">
        <ele>120.78</ele>
        <time>2012-01-15T09:13:54Z</time>
      </trkpt>
      <trkpt lat="49.00236" lon="1.08948">
        <ele>120.78</ele>
        <time>2012-01-15T09:14:04Z</time>
      </trkpt>
    </trkseg>
  </trk>
</gpx>